sensor_id;sensor_type;location;lat;lon;timestamp;P1;durP1;ratioP1;P2;durP2;ratioP2
7215;SDS011;3649;48.798;9.798;2024-01-30T00:01:02;15.57;;;11.23;;
7215;SDS011;3649;48.798;9.798;2024-01-30T00:03:29;14.30;;;10.63;;
7215;SDS011;3649;48.798;9.798;2024-01-30T00:05:56;15.47;;;10.30;;
7215;SDS011;3649;48.798;9.798;2024-01-30T00:08:25;12.67;;;10.40;;
7215;SDS011;3649;48.798;9.798;2024-01-30T00:10:52;13.20;;;9.87;;
7215;SDS011;3649;48.798;9.798;2024-01-30T00:13:19;11.47;;;9.80;;
7215;SDS011;3649;48.798;9.798;2024-01-30T00:15:46;13.97;;;10.03;;
7215;SDS011;3649;48.798;9.798;2024-01-30T00:18:13;14.47;;;10.07;;
7215;SDS011;3649;48.798;9.798;2024-01-30T00:20:40;16.33;;;8.93;;
7215;SDS011;3649;48.798;9.798;2024-01-30T00:23:09;14.20;;;10.37;;
7215;SDS011;3649;48.798;9.798;2024-01-30T00:25:35;13.50;;;9.67;;
7215;SDS011;3649;48.798;9.798;2024-01-30T00:28:02;14.23;;;10.03;;
7215;SDS011;3649;48.798;9.798;2024-01-30T00:30:29;12.67;;;9.87;;
7215;SDS011;3649;48.798;9.798;2024-01-30T00:32:56;11.77;;;9.60;;
7215;SDS011;3649;48.798;9.798;2024-01-30T00:35:23;13.73;;;10.37;;
7215;SDS011;3649;48.798;9.798;2024-01-30T00:37:50;14.03;;;9.77;;
7215;SDS011;3649;48.798;9.798;2024-01-30T00:40:17;17.27;;;9.80;;
7215;SDS011;3649;48.798;9.798;2024-01-30T00:42:44;13.23;;;10.57;;
7215;SDS011;3649;48.798;9.798;2024-01-30T00:45:12;14.43;;;11.10;;
7215;SDS011;3649;48.798;9.798;2024-01-30T00:47:40;18.07;;;12.17;;
7215;SDS011;3649;48.798;9.798;2024-01-30T00:50:07;14.83;;;11.33;;
7215;SDS011;3649;48.798;9.798;2024-01-30T00:52:34;14.63;;;11.07;;
7215;SDS011;3649;48.798;9.798;2024-01-30T00:55:02;14.13;;;10.43;;
7215;SDS011;3649;48.798;9.798;2024-01-30T00:57:29;19.00;;;12.10;;
7215;SDS011;3649;48.798;9.798;2024-01-30T00:59:56;15.17;;;11.67;;
7215;SDS011;3649;48.798;9.798;2024-01-30T01:02:23;15.10;;;10.97;;
7215;SDS011;3649;48.798;9.798;2024-01-30T01:04:50;12.80;;;10.80;;
7215;SDS011;3649;48.798;9.798;2024-01-30T01:07:17;14.93;;;11.73;;
7215;SDS011;3649;48.798;9.798;2024-01-30T01:09:46;12.97;;;9.87;;
7215;SDS011;3649;48.798;9.798;2024-01-30T01:12:14;13.47;;;9.30;;
7215;SDS011;3649;48.798;9.798;2024-01-30T01:14:41;14.00;;;10.63;;
7215;SDS011;3649;48.798;9.798;2024-01-30T01:17:08;14.23;;;10.10;;
7215;SDS011;3649;48.798;9.798;2024-01-30T01:19:35;15.50;;;10.80;;
7215;SDS011;3649;48.798;9.798;2024-01-30T01:22:02;11.47;;;9.63;;
7215;SDS011;3649;48.798;9.798;2024-01-30T01:24:32;14.50;;;9.87;;
7215;SDS011;3649;48.798;9.798;2024-01-30T01:26:59;15.20;;;9.77;;
7215;SDS011;3649;48.798;9.798;2024-01-30T01:29:26;13.53;;;10.23;;
7215;SDS011;3649;48.798;9.798;2024-01-30T01:31:55;13.83;;;10.60;;
7215;SDS011;3649;48.798;9.798;2024-01-30T01:34:23;14.93;;;10.83;;
7215;SDS011;3649;48.798;9.798;2024-01-30T01:36:55;12.47;;;10.13;;
7215;SDS011;3649;48.798;9.798;2024-01-30T01:39:22;15.03;;;10.77;;
7215;SDS011;3649;48.798;9.798;2024-01-30T01:41:50;12.27;;;9.50;;
7215;SDS011;3649;48.798;9.798;2024-01-30T01:44:17;11.57;;;9.43;;
7215;SDS011;3649;48.798;9.798;2024-01-30T01:46:44;13.03;;;10.40;;
7215;SDS011;3649;48.798;9.798;2024-01-30T01:49:11;14.30;;;10.67;;
7215;SDS011;3649;48.798;9.798;2024-01-30T01:51:39;13.03;;;9.47;;
7215;SDS011;3649;48.798;9.798;2024-01-30T01:54:08;14.30;;;10.33;;
7215;SDS011;3649;48.798;9.798;2024-01-30T01:56:35;16.33;;;9.60;;
7215;SDS011;3649;48.798;9.798;2024-01-30T01:59:05;15.30;;;8.77;;
7215;SDS011;3649;48.798;9.798;2024-01-30T02:01:34;13.07;;;9.87;;
7215;SDS011;3649;48.798;9.798;2024-01-30T02:04:04;16.20;;;9.53;;
7215;SDS011;3649;48.798;9.798;2024-01-30T02:06:31;12.03;;;9.57;;
7215;SDS011;3649;48.798;9.798;2024-01-30T02:08:59;15.03;;;9.40;;
7215;SDS011;3649;48.798;9.798;2024-01-30T02:11:26;13.03;;;9.90;;
7215;SDS011;3649;48.798;9.798;2024-01-30T02:13:53;13.53;;;10.00;;
7215;SDS011;3649;48.798;9.798;2024-01-30T02:16:20;12.60;;;9.40;;
7215;SDS011;3649;48.798;9.798;2024-01-30T02:18:47;13.80;;;9.47;;
7215;SDS011;3649;48.798;9.798;2024-01-30T02:21:15;10.83;;;9.07;;
7215;SDS011;3649;48.798;9.798;2024-01-30T02:23:43;12.83;;;10.00;;
7215;SDS011;3649;48.798;9.798;2024-01-30T02:26:12;13.90;;;9.07;;
7215;SDS011;3649;48.798;9.798;2024-01-30T02:28:39;12.10;;;9.73;;
7215;SDS011;3649;48.798;9.798;2024-01-30T02:31:06;10.73;;;7.83;;
7215;SDS011;3649;48.798;9.798;2024-01-30T02:33:33;10.73;;;8.03;;
7215;SDS011;3649;48.798;9.798;2024-01-30T02:39:18;11.33;;;8.73;;
7215;SDS011;3649;48.798;9.798;2024-01-30T02:41:44;10.87;;;8.77;;
7215;SDS011;3649;48.798;9.798;2024-01-30T02:44:11;9.90;;;8.53;;
7215;SDS011;3649;48.798;9.798;2024-01-30T02:46:38;12.10;;;8.00;;
7215;SDS011;3649;48.798;9.798;2024-01-30T02:49:04;9.97;;;7.80;;
7215;SDS011;3649;48.798;9.798;2024-01-30T02:51:31;9.63;;;8.50;;
7215;SDS011;3649;48.798;9.798;2024-01-30T02:53:58;15.50;;;8.17;;
7215;SDS011;3649;48.798;9.798;2024-01-30T02:56:25;11.67;;;8.97;;
7215;SDS011;3649;48.798;9.798;2024-01-30T02:58:52;9.73;;;8.13;;
7215;SDS011;3649;48.798;9.798;2024-01-30T03:01:18;14.40;;;9.03;;
7215;SDS011;3649;48.798;9.798;2024-01-30T03:03:46;11.77;;;8.97;;
7215;SDS011;3649;48.798;9.798;2024-01-30T03:06:12;13.83;;;8.17;;
7215;SDS011;3649;48.798;9.798;2024-01-30T03:08:41;9.80;;;7.70;;
7215;SDS011;3649;48.798;9.798;2024-01-30T03:11:08;12.47;;;8.80;;
7215;SDS011;3649;48.798;9.798;2024-01-30T03:13:34;9.27;;;7.97;;
7215;SDS011;3649;48.798;9.798;2024-01-30T03:16:01;12.27;;;9.17;;
7215;SDS011;3649;48.798;9.798;2024-01-30T03:18:29;8.93;;;8.00;;
7215;SDS011;3649;48.798;9.798;2024-01-30T03:20:55;9.70;;;8.20;;
7215;SDS011;3649;48.798;9.798;2024-01-30T03:23:22;9.00;;;8.00;;
7215;SDS011;3649;48.798;9.798;2024-01-30T03:25:49;9.53;;;7.40;;
7215;SDS011;3649;48.798;9.798;2024-01-30T03:28:16;10.30;;;8.13;;
7215;SDS011;3649;48.798;9.798;2024-01-30T03:30:43;10.00;;;8.00;;
7215;SDS011;3649;48.798;9.798;2024-01-30T03:33:09;12.00;;;8.27;;
7215;SDS011;3649;48.798;9.798;2024-01-30T03:35:36;9.83;;;7.80;;
7215;SDS011;3649;48.798;9.798;2024-01-30T03:38:03;9.87;;;7.87;;
7215;SDS011;3649;48.798;9.798;2024-01-30T03:40:30;11.43;;;8.00;;
7215;SDS011;3649;48.798;9.798;2024-01-30T03:42:57;8.83;;;7.77;;
7215;SDS011;3649;48.798;9.798;2024-01-30T03:45:24;9.00;;;7.90;;
7215;SDS011;3649;48.798;9.798;2024-01-30T03:47:51;10.07;;;7.90;;
7215;SDS011;3649;48.798;9.798;2024-01-30T03:50:18;11.43;;;8.17;;
7215;SDS011;3649;48.798;9.798;2024-01-30T03:52:45;15.00;;;7.83;;
7215;SDS011;3649;48.798;9.798;2024-01-30T03:55:12;11.40;;;8.13;;
7215;SDS011;3649;48.798;9.798;2024-01-30T03:57:38;9.03;;;8.07;;
7215;SDS011;3649;48.798;9.798;2024-01-30T04:00:05;13.70;;;8.37;;
7215;SDS011;3649;48.798;9.798;2024-01-30T04:02:33;8.57;;;7.60;;
7215;SDS011;3649;48.798;9.798;2024-01-30T04:05:00;8.97;;;7.83;;
7215;SDS011;3649;48.798;9.798;2024-01-30T04:07:28;10.67;;;7.77;;
7215;SDS011;3649;48.798;9.798;2024-01-30T04:09:55;12.53;;;7.07;;
7215;SDS011;3649;48.798;9.798;2024-01-30T04:12:22;8.57;;;7.57;;
7215;SDS011;3649;48.798;9.798;2024-01-30T04:14:49;9.93;;;7.37;;
7215;SDS011;3649;48.798;9.798;2024-01-30T04:17:16;13.30;;;8.23;;
7215;SDS011;3649;48.798;9.798;2024-01-30T04:19:42;9.80;;;7.83;;
7215;SDS011;3649;48.798;9.798;2024-01-30T04:22:09;12.47;;;7.80;;
7215;SDS011;3649;48.798;9.798;2024-01-30T04:24:36;9.27;;;7.37;;
7215;SDS011;3649;48.798;9.798;2024-01-30T04:27:03;12.70;;;8.27;;
7215;SDS011;3649;48.798;9.798;2024-01-30T04:29:30;10.43;;;7.43;;
7215;SDS011;3649;48.798;9.798;2024-01-30T04:31:58;9.60;;;7.70;;
7215;SDS011;3649;48.798;9.798;2024-01-30T04:34:25;8.77;;;7.33;;
7215;SDS011;3649;48.798;9.798;2024-01-30T04:36:52;10.43;;;8.50;;
7215;SDS011;3649;48.798;9.798;2024-01-30T04:39:19;10.10;;;7.63;;
7215;SDS011;3649;48.798;9.798;2024-01-30T04:41:46;10.03;;;7.87;;
7215;SDS011;3649;48.798;9.798;2024-01-30T04:44:12;12.10;;;7.87;;
7215;SDS011;3649;48.798;9.798;2024-01-30T04:46:39;9.23;;;7.43;;
7215;SDS011;3649;48.798;9.798;2024-01-30T04:49:06;9.03;;;7.40;;
7215;SDS011;3649;48.798;9.798;2024-01-30T04:51:36;11.50;;;8.60;;
7215;SDS011;3649;48.798;9.798;2024-01-30T04:54:03;10.87;;;8.17;;
7215;SDS011;3649;48.798;9.798;2024-01-30T04:56:30;11.23;;;8.73;;
7215;SDS011;3649;48.798;9.798;2024-01-30T04:58:57;13.77;;;8.70;;
7215;SDS011;3649;48.798;9.798;2024-01-30T05:01:24;9.83;;;7.27;;
7215;SDS011;3649;48.798;9.798;2024-01-30T05:03:51;11.17;;;7.97;;
7215;SDS011;3649;48.798;9.798;2024-01-30T05:06:25;8.83;;;7.83;;
7215;SDS011;3649;48.798;9.798;2024-01-30T05:08:52;8.63;;;7.73;;
7215;SDS011;3649;48.798;9.798;2024-01-30T05:11:19;11.50;;;8.30;;
7215;SDS011;3649;48.798;9.798;2024-01-30T05:13:46;9.37;;;7.80;;
7215;SDS011;3649;48.798;9.798;2024-01-30T05:16:13;8.80;;;7.50;;
7215;SDS011;3649;48.798;9.798;2024-01-30T05:18:40;11.27;;;8.33;;
7215;SDS011;3649;48.798;9.798;2024-01-30T05:21:07;14.10;;;8.60;;
7215;SDS011;3649;48.798;9.798;2024-01-30T05:23:34;9.33;;;7.47;;
7215;SDS011;3649;48.798;9.798;2024-01-30T05:26:01;10.87;;;8.50;;
7215;SDS011;3649;48.798;9.798;2024-01-30T05:28:29;10.00;;;8.17;;
7215;SDS011;3649;48.798;9.798;2024-01-30T05:30:56;10.00;;;8.43;;
7215;SDS011;3649;48.798;9.798;2024-01-30T05:33:23;10.43;;;8.33;;
7215;SDS011;3649;48.798;9.798;2024-01-30T05:35:50;10.37;;;8.50;;
7215;SDS011;3649;48.798;9.798;2024-01-30T05:38:20;10.23;;;7.63;;
7215;SDS011;3649;48.798;9.798;2024-01-30T05:40:47;15.40;;;8.50;;
7215;SDS011;3649;48.798;9.798;2024-01-30T05:43:14;10.63;;;8.03;;
7215;SDS011;3649;48.798;9.798;2024-01-30T05:45:41;9.20;;;8.00;;
7215;SDS011;3649;48.798;9.798;2024-01-30T05:48:08;9.70;;;8.67;;
7215;SDS011;3649;48.798;9.798;2024-01-30T05:50:35;10.73;;;7.87;;
7215;SDS011;3649;48.798;9.798;2024-01-30T05:53:02;10.73;;;7.97;;
7215;SDS011;3649;48.798;9.798;2024-01-30T05:55:29;8.83;;;7.27;;
7215;SDS011;3649;48.798;9.798;2024-01-30T05:57:56;19.07;;;7.97;;
7215;SDS011;3649;48.798;9.798;2024-01-30T06:00:22;10.50;;;7.27;;
7215;SDS011;3649;48.798;9.798;2024-01-30T06:02:49;9.43;;;8.43;;
7215;SDS011;3649;48.798;9.798;2024-01-30T06:05:16;9.03;;;8.00;;
7215;SDS011;3649;48.798;9.798;2024-01-30T06:07:43;13.73;;;8.93;;
7215;SDS011;3649;48.798;9.798;2024-01-30T06:10:10;13.03;;;8.57;;
7215;SDS011;3649;48.798;9.798;2024-01-30T06:12:37;10.73;;;8.40;;
7215;SDS011;3649;48.798;9.798;2024-01-30T06:15:04;13.20;;;8.97;;
7215;SDS011;3649;48.798;9.798;2024-01-30T06:17:32;11.23;;;9.33;;
7215;SDS011;3649;48.798;9.798;2024-01-30T06:19:59;9.53;;;7.87;;
7215;SDS011;3649;48.798;9.798;2024-01-30T06:22:26;10.77;;;9.53;;
7215;SDS011;3649;48.798;9.798;2024-01-30T06:24:53;11.40;;;9.77;;
7215;SDS011;3649;48.798;9.798;2024-01-30T06:27:20;11.23;;;9.70;;
7215;SDS011;3649;48.798;9.798;2024-01-30T06:29:46;11.47;;;9.60;;
7215;SDS011;3649;48.798;9.798;2024-01-30T06:32:13;10.63;;;9.17;;
7215;SDS011;3649;48.798;9.798;2024-01-30T06:34:41;14.80;;;9.20;;
7215;SDS011;3649;48.798;9.798;2024-01-30T06:37:10;11.67;;;9.10;;
7215;SDS011;3649;48.798;9.798;2024-01-30T06:39:37;10.50;;;8.53;;
7215;SDS011;3649;48.798;9.798;2024-01-30T06:42:04;10.17;;;7.93;;
7215;SDS011;3649;48.798;9.798;2024-01-30T06:44:31;9.63;;;7.97;;
7215;SDS011;3649;48.798;9.798;2024-01-30T06:46:58;9.23;;;8.33;;
7215;SDS011;3649;48.798;9.798;2024-01-30T06:49:25;11.03;;;8.70;;
7215;SDS011;3649;48.798;9.798;2024-01-30T06:51:52;9.17;;;7.67;;
7215;SDS011;3649;48.798;9.798;2024-01-30T06:54:19;13.50;;;8.00;;
7215;SDS011;3649;48.798;9.798;2024-01-30T06:56:46;12.07;;;9.30;;
7215;SDS011;3649;48.798;9.798;2024-01-30T06:59:13;9.77;;;8.23;;
7215;SDS011;3649;48.798;9.798;2024-01-30T07:01:39;10.37;;;8.00;;
7215;SDS011;3649;48.798;9.798;2024-01-30T07:04:06;8.67;;;7.63;;
7215;SDS011;3649;48.798;9.798;2024-01-30T07:06:33;8.53;;;7.67;;
7215;SDS011;3649;48.798;9.798;2024-01-30T07:09:00;8.77;;;7.73;;
7215;SDS011;3649;48.798;9.798;2024-01-30T07:11:27;11.03;;;7.80;;
7215;SDS011;3649;48.798;9.798;2024-01-30T07:13:55;9.43;;;8.00;;
7215;SDS011;3649;48.798;9.798;2024-01-30T07:16:23;9.60;;;8.03;;
7215;SDS011;3649;48.798;9.798;2024-01-30T07:18:50;9.67;;;8.37;;
7215;SDS011;3649;48.798;9.798;2024-01-30T07:21:18;8.03;;;7.17;;
7215;SDS011;3649;48.798;9.798;2024-01-30T07:23:48;8.50;;;7.53;;
7215;SDS011;3649;48.798;9.798;2024-01-30T07:26:16;10.53;;;8.73;;
7215;SDS011;3649;48.798;9.798;2024-01-30T07:28:43;9.10;;;8.20;;
7215;SDS011;3649;48.798;9.798;2024-01-30T07:31:10;10.40;;;8.30;;
7215;SDS011;3649;48.798;9.798;2024-01-30T07:33:37;12.07;;;9.53;;
7215;SDS011;3649;48.798;9.798;2024-01-30T07:36:04;9.53;;;8.53;;
7215;SDS011;3649;48.798;9.798;2024-01-30T07:38:32;13.27;;;8.93;;
7215;SDS011;3649;48.798;9.798;2024-01-30T07:40:59;12.00;;;8.67;;
7215;SDS011;3649;48.798;9.798;2024-01-30T07:43:26;20.33;;;14.83;;
7215;SDS011;3649;48.798;9.798;2024-01-30T07:45:53;12.10;;;10.40;;
7215;SDS011;3649;48.798;9.798;2024-01-30T07:48:21;12.50;;;9.03;;
7215;SDS011;3649;48.798;9.798;2024-01-30T07:50:48;11.17;;;8.93;;
7215;SDS011;3649;48.798;9.798;2024-01-30T07:53:15;10.53;;;9.27;;
7215;SDS011;3649;48.798;9.798;2024-01-30T07:55:42;11.57;;;9.40;;
7215;SDS011;3649;48.798;9.798;2024-01-30T07:58:13;13.57;;;9.23;;
7215;SDS011;3649;48.798;9.798;2024-01-30T08:00:40;14.60;;;11.17;;
7215;SDS011;3649;48.798;9.798;2024-01-30T08:03:07;13.20;;;11.00;;
7215;SDS011;3649;48.798;9.798;2024-01-30T08:05:34;14.10;;;11.20;;
7215;SDS011;3649;48.798;9.798;2024-01-30T08:08:01;12.30;;;10.03;;
7215;SDS011;3649;48.798;9.798;2024-01-30T08:10:28;14.53;;;11.07;;
7215;SDS011;3649;48.798;9.798;2024-01-30T08:12:56;11.60;;;9.63;;
7215;SDS011;3649;48.798;9.798;2024-01-30T08:15:23;12.80;;;10.53;;
7215;SDS011;3649;48.798;9.798;2024-01-30T08:17:50;14.43;;;11.60;;
7215;SDS011;3649;48.798;9.798;2024-01-30T08:20:22;15.50;;;10.30;;
7215;SDS011;3649;48.798;9.798;2024-01-30T08:22:49;13.73;;;10.83;;
7215;SDS011;3649;48.798;9.798;2024-01-30T08:25:16;13.77;;;10.33;;
7215;SDS011;3649;48.798;9.798;2024-01-30T08:27:43;13.60;;;10.00;;
7215;SDS011;3649;48.798;9.798;2024-01-30T08:30:11;18.13;;;10.07;;
7215;SDS011;3649;48.798;9.798;2024-01-30T08:32:38;16.17;;;12.70;;
7215;SDS011;3649;48.798;9.798;2024-01-30T08:35:05;17.10;;;10.57;;
7215;SDS011;3649;48.798;9.798;2024-01-30T08:37:33;21.57;;;12.63;;
7215;SDS011;3649;48.798;9.798;2024-01-30T08:40:00;16.90;;;11.13;;
7215;SDS011;3649;48.798;9.798;2024-01-30T08:42:29;10.70;;;9.60;;
7215;SDS011;3649;48.798;9.798;2024-01-30T08:44:56;12.60;;;9.60;;
7215;SDS011;3649;48.798;9.798;2024-01-30T08:47:23;12.63;;;9.20;;
7215;SDS011;3649;48.798;9.798;2024-01-30T08:49:51;13.37;;;8.90;;
7215;SDS011;3649;48.798;9.798;2024-01-30T08:52:19;15.30;;;9.73;;
7215;SDS011;3649;48.798;9.798;2024-01-30T08:54:47;13.60;;;9.40;;
7215;SDS011;3649;48.798;9.798;2024-01-30T08:57:14;13.63;;;10.50;;
7215;SDS011;3649;48.798;9.798;2024-01-30T08:59:41;14.60;;;10.07;;
7215;SDS011;3649;48.798;9.798;2024-01-30T09:02:11;13.23;;;10.83;;
7215;SDS011;3649;48.798;9.798;2024-01-30T09:04:39;12.63;;;10.53;;
7215;SDS011;3649;48.798;9.798;2024-01-30T09:07:08;12.57;;;9.97;;
7215;SDS011;3649;48.798;9.798;2024-01-30T09:09:37;14.03;;;10.60;;
7215;SDS011;3649;48.798;9.798;2024-01-30T09:12:06;11.27;;;9.93;;
7215;SDS011;3649;48.798;9.798;2024-01-30T09:14:36;11.60;;;9.90;;
7215;SDS011;3649;48.798;9.798;2024-01-30T09:17:04;11.33;;;9.47;;
7215;SDS011;3649;48.798;9.798;2024-01-30T09:19:31;12.67;;;9.40;;
7215;SDS011;3649;48.798;9.798;2024-01-30T09:21:58;11.13;;;9.00;;
7215;SDS011;3649;48.798;9.798;2024-01-30T09:24:26;15.10;;;9.87;;
7215;SDS011;3649;48.798;9.798;2024-01-30T09:26:54;17.13;;;9.80;;
7215;SDS011;3649;48.798;9.798;2024-01-30T09:29:21;13.90;;;9.80;;
7215;SDS011;3649;48.798;9.798;2024-01-30T09:31:48;12.07;;;9.90;;
7215;SDS011;3649;48.798;9.798;2024-01-30T09:34:15;10.17;;;9.03;;
7215;SDS011;3649;48.798;9.798;2024-01-30T09:36:42;11.97;;;9.37;;
7215;SDS011;3649;48.798;9.798;2024-01-30T09:39:09;11.20;;;9.00;;
7215;SDS011;3649;48.798;9.798;2024-01-30T09:41:43;16.27;;;10.13;;
7215;SDS011;3649;48.798;9.798;2024-01-30T09:44:16;12.67;;;9.33;;
7215;SDS011;3649;48.798;9.798;2024-01-30T09:46:44;14.17;;;9.90;;
7215;SDS011;3649;48.798;9.798;2024-01-30T09:49:16;11.07;;;9.83;;
7215;SDS011;3649;48.798;9.798;2024-01-30T09:51:46;11.80;;;9.20;;
7215;SDS011;3649;48.798;9.798;2024-01-30T09:54:15;12.63;;;9.23;;
7215;SDS011;3649;48.798;9.798;2024-01-30T09:56:43;12.43;;;10.13;;
7215;SDS011;3649;48.798;9.798;2024-01-30T09:59:10;10.53;;;9.40;;
7215;SDS011;3649;48.798;9.798;2024-01-30T10:01:37;12.23;;;9.23;;
7215;SDS011;3649;48.798;9.798;2024-01-30T10:04:06;16.47;;;10.13;;
7215;SDS011;3649;48.798;9.798;2024-01-30T10:06:34;13.03;;;10.03;;
7215;SDS011;3649;48.798;9.798;2024-01-30T10:09:01;13.10;;;9.53;;
7215;SDS011;3649;48.798;9.798;2024-01-30T10:11:28;14.33;;;10.13;;
7215;SDS011;3649;48.798;9.798;2024-01-30T10:13:55;11.33;;;9.90;;
7215;SDS011;3649;48.798;9.798;2024-01-30T10:16:22;13.83;;;9.73;;
7215;SDS011;3649;48.798;9.798;2024-01-30T10:18:49;12.83;;;9.47;;
7215;SDS011;3649;48.798;9.798;2024-01-30T10:21:17;12.53;;;9.67;;
7215;SDS011;3649;48.798;9.798;2024-01-30T10:23:44;11.53;;;10.33;;
7215;SDS011;3649;48.798;9.798;2024-01-30T10:26:11;11.20;;;9.53;;
7215;SDS011;3649;48.798;9.798;2024-01-30T10:28:38;10.17;;;8.67;;
7215;SDS011;3649;48.798;9.798;2024-01-30T10:31:05;14.67;;;9.33;;
7215;SDS011;3649;48.798;9.798;2024-01-30T10:33:33;10.30;;;8.77;;
7215;SDS011;3649;48.798;9.798;2024-01-30T10:36:04;13.80;;;9.50;;
7215;SDS011;3649;48.798;9.798;2024-01-30T10:38:32;11.67;;;9.50;;
7215;SDS011;3649;48.798;9.798;2024-01-30T10:41:00;14.50;;;10.83;;
7215;SDS011;3649;48.798;9.798;2024-01-30T10:43:31;19.57;;;10.73;;
7215;SDS011;3649;48.798;9.798;2024-01-30T10:48:58;12.47;;;10.47;;
7215;SDS011;3649;48.798;9.798;2024-01-30T10:51:27;13.57;;;10.73;;
7215;SDS011;3649;48.798;9.798;2024-01-30T10:53:55;13.63;;;10.50;;
7215;SDS011;3649;48.798;9.798;2024-01-30T10:56:25;17.47;;;12.00;;
7215;SDS011;3649;48.798;9.798;2024-01-30T10:58:52;13.80;;;10.90;;
7215;SDS011;3649;48.798;9.798;2024-01-30T11:01:21;17.80;;;11.07;;
7215;SDS011;3649;48.798;9.798;2024-01-30T11:03:53;15.37;;;11.23;;
7215;SDS011;3649;48.798;9.798;2024-01-30T11:06:27;18.40;;;12.20;;
7215;SDS011;3649;48.798;9.798;2024-01-30T11:09:04;17.03;;;12.60;;
7215;SDS011;3649;48.798;9.798;2024-01-30T11:11:58;19.43;;;12.20;;
7215;SDS011;3649;48.798;9.798;2024-01-30T11:14:29;18.77;;;11.40;;
7215;SDS011;3649;48.798;9.798;2024-01-30T11:16:57;19.50;;;11.87;;
7215;SDS011;3649;48.798;9.798;2024-01-30T11:19:25;20.20;;;12.07;;
7215;SDS011;3649;48.798;9.798;2024-01-30T11:21:54;19.53;;;12.67;;
7215;SDS011;3649;48.798;9.798;2024-01-30T11:24:24;21.53;;;12.90;;
7215;SDS011;3649;48.798;9.798;2024-01-30T11:26:55;19.13;;;12.53;;
7215;SDS011;3649;48.798;9.798;2024-01-30T11:29:29;20.90;;;11.77;;
7215;SDS011;3649;48.798;9.798;2024-01-30T11:31:57;17.73;;;12.20;;
7215;SDS011;3649;48.798;9.798;2024-01-30T11:34:26;16.70;;;11.97;;
7215;SDS011;3649;48.798;9.798;2024-01-30T11:36:56;22.20;;;12.73;;
7215;SDS011;3649;48.798;9.798;2024-01-30T11:39:26;17.00;;;11.63;;
7215;SDS011;3649;48.798;9.798;2024-01-30T11:41:53;16.13;;;10.83;;
7215;SDS011;3649;48.798;9.798;2024-01-30T11:44:22;17.97;;;12.27;;
7215;SDS011;3649;48.798;9.798;2024-01-30T11:46:51;17.70;;;11.93;;
7215;SDS011;3649;48.798;9.798;2024-01-30T11:49:18;16.73;;;11.07;;
7215;SDS011;3649;48.798;9.798;2024-01-30T11:51:46;19.17;;;12.07;;
7215;SDS011;3649;48.798;9.798;2024-01-30T11:54:17;18.00;;;11.90;;
7215;SDS011;3649;48.798;9.798;2024-01-30T11:56:44;15.87;;;11.47;;
7215;SDS011;3649;48.798;9.798;2024-01-30T11:59:12;16.37;;;11.10;;
7215;SDS011;3649;48.798;9.798;2024-01-30T12:01:40;24.23;;;12.90;;
7215;SDS011;3649;48.798;9.798;2024-01-30T12:04:08;17.30;;;11.57;;
7215;SDS011;3649;48.798;9.798;2024-01-30T12:06:37;17.23;;;11.87;;
7215;SDS011;3649;48.798;9.798;2024-01-30T12:09:06;17.17;;;12.17;;
7215;SDS011;3649;48.798;9.798;2024-01-30T12:11:45;23.93;;;12.43;;
7215;SDS011;3649;48.798;9.798;2024-01-30T12:14:13;24.87;;;13.43;;
7215;SDS011;3649;48.798;9.798;2024-01-30T12:16:41;22.90;;;13.00;;
7215;SDS011;3649;48.798;9.798;2024-01-30T12:19:09;20.03;;;13.13;;
7215;SDS011;3649;48.798;9.798;2024-01-30T12:21:37;25.77;;;12.83;;
7215;SDS011;3649;48.798;9.798;2024-01-30T12:24:05;20.67;;;12.83;;
7215;SDS011;3649;48.798;9.798;2024-01-30T12:26:34;25.03;;;12.90;;
7215;SDS011;3649;48.798;9.798;2024-01-30T12:29:03;17.20;;;10.83;;
7215;SDS011;3649;48.798;9.798;2024-01-30T12:31:32;20.53;;;11.03;;
7215;SDS011;3649;48.798;9.798;2024-01-30T12:34:00;20.47;;;11.57;;
7215;SDS011;3649;48.798;9.798;2024-01-30T12:36:28;18.27;;;11.13;;
7215;SDS011;3649;48.798;9.798;2024-01-30T12:38:57;18.47;;;11.60;;
7215;SDS011;3649;48.798;9.798;2024-01-30T12:41:25;15.23;;;11.13;;
7215;SDS011;3649;48.798;9.798;2024-01-30T12:43:56;15.63;;;11.20;;
7215;SDS011;3649;48.798;9.798;2024-01-30T12:46:28;15.00;;;10.07;;
7215;SDS011;3649;48.798;9.798;2024-01-30T12:48:55;15.50;;;8.67;;
7215;SDS011;3649;48.798;9.798;2024-01-30T12:51:24;12.93;;;9.17;;
7215;SDS011;3649;48.798;9.798;2024-01-30T12:53:51;12.07;;;9.07;;
7215;SDS011;3649;48.798;9.798;2024-01-30T12:56:18;11.67;;;8.00;;
7215;SDS011;3649;48.798;9.798;2024-01-30T12:58:45;11.47;;;6.80;;
7215;SDS011;3649;48.798;9.798;2024-01-30T13:01:17;13.77;;;6.80;;
7215;SDS011;3649;48.798;9.798;2024-01-30T13:03:45;9.40;;;6.40;;
7215;SDS011;3649;48.798;9.798;2024-01-30T13:06:12;12.27;;;5.93;;
7215;SDS011;3649;48.798;9.798;2024-01-30T13:08:39;6.37;;;4.60;;
7215;SDS011;3649;48.798;9.798;2024-01-30T13:11:06;8.63;;;5.13;;
7215;SDS011;3649;48.798;9.798;2024-01-30T13:13:43;6.47;;;4.50;;
7215;SDS011;3649;48.798;9.798;2024-01-30T13:16:10;4.40;;;3.87;;
7215;SDS011;3649;48.798;9.798;2024-01-30T13:18:37;4.43;;;3.20;;
7215;SDS011;3649;48.798;9.798;2024-01-30T13:21:04;6.13;;;3.97;;
7215;SDS011;3649;48.798;9.798;2024-01-30T13:23:32;5.23;;;3.70;;
7215;SDS011;3649;48.798;9.798;2024-01-30T13:25:59;5.67;;;3.47;;
7215;SDS011;3649;48.798;9.798;2024-01-30T13:28:26;3.47;;;3.10;;
7215;SDS011;3649;48.798;9.798;2024-01-30T13:30:53;5.80;;;3.70;;
7215;SDS011;3649;48.798;9.798;2024-01-30T13:33:20;11.30;;;3.87;;
7215;SDS011;3649;48.798;9.798;2024-01-30T13:35:49;5.27;;;3.23;;
7215;SDS011;3649;48.798;9.798;2024-01-30T13:38:16;4.13;;;3.13;;
7215;SDS011;3649;48.798;9.798;2024-01-30T13:40:44;4.80;;;3.60;;
7215;SDS011;3649;48.798;9.798;2024-01-30T13:43:12;5.87;;;3.10;;
7215;SDS011;3649;48.798;9.798;2024-01-30T13:45:40;3.10;;;2.90;;
7215;SDS011;3649;48.798;9.798;2024-01-30T13:48:09;3.77;;;3.33;;
7215;SDS011;3649;48.798;9.798;2024-01-30T13:50:36;3.60;;;3.30;;
7215;SDS011;3649;48.798;9.798;2024-01-30T13:53:03;3.50;;;3.20;;
7215;SDS011;3649;48.798;9.798;2024-01-30T13:55:32;4.10;;;3.53;;
7215;SDS011;3649;48.798;9.798;2024-01-30T13:58:02;4.93;;;3.37;;
7215;SDS011;3649;48.798;9.798;2024-01-30T14:00:29;4.13;;;3.40;;
7215;SDS011;3649;48.798;9.798;2024-01-30T14:02:56;4.67;;;3.63;;
7215;SDS011;3649;48.798;9.798;2024-01-30T14:05:27;8.47;;;3.80;;
7215;SDS011;3649;48.798;9.798;2024-01-30T14:07:55;4.93;;;3.27;;
7215;SDS011;3649;48.798;9.798;2024-01-30T14:10:24;6.87;;;3.43;;
7215;SDS011;3649;48.798;9.798;2024-01-30T14:12:51;6.10;;;3.33;;
7215;SDS011;3649;48.798;9.798;2024-01-30T14:15:19;4.93;;;3.33;;
7215;SDS011;3649;48.798;9.798;2024-01-30T14:17:54;3.17;;;2.83;;
7215;SDS011;3649;48.798;9.798;2024-01-30T14:20:22;4.03;;;2.97;;
7215;SDS011;3649;48.798;9.798;2024-01-30T14:22:50;5.83;;;3.07;;
7215;SDS011;3649;48.798;9.798;2024-01-30T14:25:18;5.10;;;3.40;;
7215;SDS011;3649;48.798;9.798;2024-01-30T14:27:45;3.63;;;3.30;;
7215;SDS011;3649;48.798;9.798;2024-01-30T14:30:12;4.77;;;3.53;;
7215;SDS011;3649;48.798;9.798;2024-01-30T14:32:39;7.67;;;4.03;;
7215;SDS011;3649;48.798;9.798;2024-01-30T14:35:09;9.53;;;3.90;;
7215;SDS011;3649;48.798;9.798;2024-01-30T14:37:37;7.07;;;4.17;;
7215;SDS011;3649;48.798;9.798;2024-01-30T14:40:05;6.70;;;4.37;;
7215;SDS011;3649;48.798;9.798;2024-01-30T14:42:34;8.80;;;6.47;;
7215;SDS011;3649;48.798;9.798;2024-01-30T14:45:05;9.30;;;5.57;;
7215;SDS011;3649;48.798;9.798;2024-01-30T14:47:33;18.07;;;10.47;;
7215;SDS011;3649;48.798;9.798;2024-01-30T14:50:03;12.47;;;7.93;;
7215;SDS011;3649;48.798;9.798;2024-01-30T14:52:34;11.93;;;5.83;;
7215;SDS011;3649;48.798;9.798;2024-01-30T14:55:02;8.27;;;6.50;;
7215;SDS011;3649;48.798;9.798;2024-01-30T14:57:29;10.47;;;7.50;;
7215;SDS011;3649;48.798;9.798;2024-01-30T14:59:56;10.17;;;6.67;;
7215;SDS011;3649;48.798;9.798;2024-01-30T15:02:23;6.77;;;5.27;;
7215;SDS011;3649;48.798;9.798;2024-01-30T15:04:50;10.40;;;5.07;;
7215;SDS011;3649;48.798;9.798;2024-01-30T15:07:17;9.27;;;5.00;;
7215;SDS011;3649;48.798;9.798;2024-01-30T15:09:58;7.03;;;4.67;;